Time;durP1;ratioP1;P1;durP2;ratioP2;P2;SDS_P1;SDS_P2;PMS_P1;PMS_P2;Temp;Humidity;BMP_temperature;BMP_pressure;BME280_temperature;BME280_humidity;BME280_pressure;Samples;Min_cycle;Max_cycle;Signal;HPM_P1;HPM_P2
2022/08/21 00:01:35;;;;;;;1999.90;999.90;;;18.50;99.90;;;;;;6728139;88;20513;-77
2022/08/21 00:11:38;;;;;;;1999.90;999.90;;;18.50;99.90;;;;;;6731828;88;20531;-77
2022/08/21 00:21:39;;;;;;;1999.90;999.90;;;18.40;99.90;;;;;;6731086;88;20351;-77
2022/08/21 00:31:40;;;;;;;1999.90;999.90;;;18.20;99.90;;;;;;6733037;88;20233;-77
2022/08/21 00:41:42;;;;;;;1999.90;999.90;;;18.10;99.90;;;;;;6736366;88;20206;-78
2022/08/21 00:51:53;;;;;;;1999.90;999.90;;;18.00;99.90;;;;;;6730857;88;20190;-78
2022/08/21 01:01:54;;;;;;;1999.90;999.90;;;17.70;99.90;;;;;;6730322;88;20252;-78
2022/08/21 01:11:54;;;;;;;1999.90;999.90;;;17.50;99.90;;;;;;6729694;88;20196;-78
2022/08/21 01:21:55;;;;;;;1999.90;999.90;;;17.20;99.90;;;;;;6729230;88;20681;-78
2022/08/21 01:31:56;;;;;;;1999.90;999.90;;;17.10;99.90;;;;;;6727767;88;20197;-78
2022/08/21 01:41:57;;;;;;;1999.90;999.90;;;17.10;99.90;;;;;;6726269;88;20415;-78
2022/08/21 01:51:57;;;;;;;1999.90;999.90;;;17.00;99.90;;;;;;6746978;88;20652;-78
2022/08/21 02:01:58;;;;;;;1999.90;999.90;;;16.70;99.90;;;;;;6748256;87;20193;-77
2022/08/21 02:11:59;;;;;;;1999.90;999.90;;;16.70;99.90;;;;;;6747638;88;20798;-78
2022/08/21 02:21:59;;;;;;;1999.90;999.90;;;16.40;99.90;;;;;;6747778;87;21047;-78
2022/08/21 02:32:00;;;;;;;1999.90;999.90;;;16.30;99.90;;;;;;6743592;88;20252;-77
2022/08/21 02:42:00;;;;;;;1999.90;999.90;;;16.20;99.90;;;;;;6746660;87;20287;-78
2022/08/21 02:52:01;;;;;;;1999.90;999.90;;;16.10;99.90;;;;;;6747146;88;20816;-78
2022/08/21 03:02:02;;;;;;;1999.90;999.90;;;15.90;99.90;;;;;;6753219;87;20693;-78
2022/08/21 03:12:03;;;;;;;1999.90;999.90;;;15.80;99.90;;;;;;6748540;87;20659;-78
2022/08/21 03:22:04;;;;;;;1999.90;999.90;;;15.80;99.90;;;;;;6746085;88;20202;-77
2022/08/21 03:32:04;;;;;;;1999.90;999.90;;;15.80;99.90;;;;;;6756026;88;20972;-78
2022/08/21 03:42:06;;;;;;;1999.90;999.90;;;15.70;99.90;;;;;;6747302;87;20198;-78
2022/08/21 03:52:07;;;;;;;1999.90;999.90;;;15.60;99.90;;;;;;6752672;88;20189;-78
2022/08/21 04:02:07;;;;;;;1999.90;999.90;;;15.40;99.90;;;;;;6750855;88;20732;-78
2022/08/21 04:12:08;;;;;;;1999.90;999.90;;;15.30;99.90;;;;;;6751414;87;20180;-78
2022/08/21 04:22:09;;;;;;;1999.90;999.90;;;15.30;99.90;;;;;;6747466;88;20304;-77
2022/08/21 04:32:09;;;;;;;1999.90;999.90;;;15.20;99.90;;;;;;6749856;88;20683;-78
2022/08/21 04:42:10;;;;;;;1999.90;999.90;;;15.20;99.90;;;;;;6749085;88;20248;-77
2022/08/21 04:52:13;;;;;;;1999.90;999.90;;;15.10;99.90;;;;;;6750453;87;20234;-78
2022/08/21 05:02:14;;;;;;;1999.90;999.90;;;15.10;99.90;;;;;;6750306;88;20223;-78
2022/08/21 05:12:15;;;;;;;1999.90;999.90;;;15.20;99.90;;;;;;6746059;87;20178;-78
2022/08/21 05:22:24;;;;;;;1999.90;999.90;;;15.20;99.90;;;;;;6749217;88;20189;-77
2022/08/21 05:32:25;;;;;;;1999.90;999.90;;;15.40;99.90;;;;;;6745654;88;20181;-78
2022/08/21 05:42:25;;;;;;;1999.90;999.90;;;15.30;99.90;;;;;;6747025;87;20735;-77
2022/08/21 05:52:26;;;;;;;1999.90;999.90;;;15.50;99.90;;;;;;6748775;88;20172;-78
2022/08/21 06:02:26;;;;;;;1999.90;999.90;;;15.80;99.90;;;;;;6750363;88;20213;-78
2022/08/21 06:12:27;;;;;;;1999.90;999.90;;;16.40;99.90;;;;;;6753092;88;20208;-78
2022/08/21 06:22:28;;;;;;;1999.90;999.90;;;16.80;99.90;;;;;;6752865;88;20522;-78
2022/08/21 06:32:29;;;;;;;1999.90;999.90;;;17.30;99.90;;;;;;6747301;88;20168;-78
2022/08/21 06:42:30;;;;;;;1999.90;999.90;;;17.60;99.90;;;;;;6757885;88;20176;-77
2022/08/21 06:52:32;;;;;;;1999.90;999.90;;;18.30;99.90;;;;;;6751605;88;20193;-77
2022/08/21 07:02:33;;;;;;;1999.90;999.90;;;18.30;99.90;;;;;;6757396;88;20232;-77
2022/08/21 07:12:35;;;;;;;1999.90;999.90;;;19.10;99.90;;;;;;6759410;88;20211;-78
2022/08/21 07:22:59;;;;;;;1999.90;999.90;;;19.20;99.90;;;;;;6759566;88;20181;-78
2022/08/21 07:33:01;;;;;;;1999.90;999.90;;;20.20;99.90;;;;;;6761388;88;20193;-76
2022/08/21 07:43:02;;;;;;;1999.90;999.90;;;21.10;99.90;;;;;;6743496;87;20184;-76
2022/08/21 07:53:03;;;;;;;1999.90;999.90;;;21.60;99.90;;;;;;6749913;88;20229;-77
2022/08/21 08:03:04;;;;;;;1999.90;999.90;;;22.70;99.90;;;;;;6750196;88;20205;-77
2022/08/21 08:13:05;;;;;;;1999.90;999.90;;;23.60;99.90;;;;;;6753571;88;20188;-76
2022/08/21 08:23:05;;;;;;;1999.90;999.90;;;24.20;99.90;;;;;;6752974;88;20192;-78
2022/08/21 08:33:06;;;;;;;1999.90;999.90;;;24.60;99.90;;;;;;6764821;88;20214;-78
2022/08/21 08:43:07;;;;;;;1999.90;999.90;;;25.20;97.90;;;;;;6765835;87;20178;-82
2022/08/21 08:53:20;;;;;;;1999.90;999.90;;;26.00;97.90;;;;;;6756707;88;20226;-80
2022/08/21 09:03:23;;;;;;;1999.90;999.90;;;26.40;96.10;;;;;;6758587;88;20537;-78
2022/08/21 09:13:46;;;;;;;1999.90;999.90;;;27.00;95.40;;;;;;6757974;88;20192;-77
2022/08/21 09:23:56;;;;;;;1999.90;999.90;;;27.30;96.60;;;;;;6758772;88;20206;-78
2022/08/21 09:34:03;;;;;;;1999.90;999.90;;;27.60;94.70;;;;;;6753730;88;20257;-77
2022/08/21 09:44:06;;;;;;;1999.90;999.90;;;29.30;93.00;;;;;;6747925;88;20277;-76
2022/08/21 09:54:07;;;;;;;1999.90;999.90;;;29.50;91.60;;;;;;6746746;88;20668;-80
2022/08/21 10:04:08;;;;;;;1999.90;999.90;;;30.40;90.20;;;;;;6748846;88;20191;-77
2022/08/21 10:14:09;;;;;;;1999.90;999.90;;;30.30;87.70;;;;;;6756989;88;20619;-82
2022/08/21 10:24:45;;;;;;;1999.90;999.90;;;29.90;86.10;;;;;;6750716;88;20176;-78
2022/08/21 10:35:12;;;;;;;1999.90;999.90;;;30.20;84.90;;;;;;6745131;88;20173;-79
2022/08/21 10:45:36;;;;;;;1999.90;999.90;;;30.40;80.30;;;;;;6746922;87;20746;-77
2022/08/21 10:55:46;;;;;;;1999.90;999.90;;;31.00;79.00;;;;;;6766276;88;21070;-81
2022/08/21 11:05:52;;;;;;;1999.90;999.90;;;31.60;77.40;;;;;;6757970;88;20212;-83
2022/08/21 11:16:44;;;;;;;1999.90;999.90;;;31.60;76.40;;;;;;6764651;87;20204;-82
2022/08/21 11:26:47;;;;;;;;;;;31.50;76.90;;;;;;6715318;88;20215;-81
2022/08/21 11:37:08;;;;;;;1999.90;999.90;;;32.70;73.70;;;;;;6743102;88;20074;-81
2022/08/21 11:47:15;;;;;;;;;;;32.30;73.10;;;;;;6752670;87;20196;-82
2022/08/21 11:57:24;;;;;;;1999.90;999.90;;;32.60;73.20;;;;;;6761381;88;20130;-81
2022/08/21 12:07:40;;;;;;;1999.90;999.90;;;31.30;72.70;;;;;;6752269;88;20241;-83
2022/08/21 12:17:51;;;;;;;1999.90;999.90;;;33.20;72.90;;;;;;6746945;88;20212;-82
2022/08/21 12:28:07;;;;;;;1999.90;999.90;;;33.60;70.70;;;;;;6747407;88;20659;-82
2022/08/21 12:38:28;;;;;;;1999.90;999.90;;;33.70;70.80;;;;;;6750675;88;20293;-83
2022/08/21 12:48:40;;;;;;;1999.90;999.90;;;35.30;68.30;;;;;;6751706;88;20336;-79
2022/08/21 12:58:53;;;;;;;1999.90;999.90;;;35.50;67.10;;;;;;6751779;88;20241;-79
2022/08/21 13:09:03;;;;;;;1999.90;999.90;;;35.80;65.40;;;;;;6759729;88;20238;-79
2022/08/21 13:19:05;;;;;;;;;;;34.10;66.10;;;;;;6757483;88;20621;-79
2022/08/21 13:29:11;;;;;;;1999.90;999.90;;;33.60;65.70;;;;;;6756132;88;20519;-79
2022/08/21 13:39:17;;;;;;;1999.90;999.90;;;33.30;66.10;;;;;;6749395;88;20195;-79
2022/08/21 13:49:20;;;;;;;1999.90;999.90;;;32.00;67.10;;;;;;6767864;88;20325;-80
2022/08/21 13:59:32;;;;;;;1999.90;999.90;;;31.80;68.10;;;;;;6755939;88;20226;-78
2022/08/21 14:09:42;;;;;;;1999.90;999.90;;;31.90;67.20;;;;;;6746727;88;20376;-78
2022/08/21 14:19:46;;;;;;;1999.90;999.90;;;30.50;69.80;;;;;;6750486;88;20188;-78
2022/08/21 14:29:47;;;;;;;1999.90;999.90;;;30.80;69.90;;;;;;6747712;88;20180;-79
2022/08/21 14:39:47;;;;;;;1999.90;999.90;;;31.00;69.90;;;;;;6753473;88;20225;-78
2022/08/21 14:49:48;;;;;;;1999.90;999.90;;;31.40;69.00;;;;;;6754426;88;20181;-79
2022/08/21 14:59:49;;;;;;;1999.90;999.90;;;31.00;69.20;;;;;;6765884;88;20222;-79
2022/08/21 15:09:49;;;;;;;1999.90;999.90;;;30.40;71.00;;;;;;6750220;88;20588;-79
2022/08/21 15:19:50;;;;;;;1999.90;999.90;;;29.70;72.10;;;;;;6747989;88;20782;-79
2022/08/21 15:29:53;;;;;;;1999.90;999.90;;;29.50;72.40;;;;;;6748227;88;20655;-79
2022/08/21 15:39:54;;;;;;;1999.90;999.90;;;28.90;73.60;;;;;;6758477;88;20343;-79
2022/08/21 15:49:54;;;;;;;1999.90;999.90;;;28.40;74.00;;;;;;6757314;88;20329;-79
2022/08/21 16:00:10;;;;;;;1999.90;999.90;;;27.90;75.30;;;;;;6753284;88;20243;-79
2022/08/21 16:10:12;;;;;;;1999.90;999.90;;;27.50;75.20;;;;;;6752143;88;20185;-79
2022/08/21 16:20:18;;;;;;;1999.90;999.90;;;27.30;74.90;;;;;;6761647;88;20673;-79
2022/08/21 16:30:20;;;;;;;1999.90;999.90;;;27.00;75.50;;;;;;6752341;88;20192;-79
2022/08/21 16:40:25;;;;;;;1999.90;999.90;;;26.60;76.00;;;;;;6748202;88;20691;-79
2022/08/21 16:50:26;;;;;;;1999.90;999.90;;;26.50;76.60;;;;;;6745707;88;20188;-78
2022/08/21 17:00:27;;;;;;;1999.90;999.90;;;26.20;76.80;;;;;;6745213;88;20196;-78
2022/08/21 17:10:27;;;;;;;1999.90;999.90;;;26.00;76.70;;;;;;6759165;88;20205;-80
2022/08/21 17:20:28;;;;;;;1999.90;999.90;;;25.70;77.20;;;;;;6742461;88;20243;-80
2022/08/21 17:30:28;;;;;;;1999.90;999.90;;;25.60;77.60;;;;;;6751065;88;20184;-78
2022/08/21 17:40:29;;;;;;;1999.90;999.90;;;25.40;77.10;;;;;;6754148;88;20210;-79
2022/08/21 17:50:30;;;;;;;1999.90;999.90;;;25.20;76.20;;;;;;6747859;88;20517;-79
2022/08/21 18:00:31;;;;;;;1999.90;999.90;;;25.00;76.10;;;;;;6739967;88;20782;-78
2022/08/21 18:10:32;;;;;;;1999.90;999.90;;;24.80;76.70;;;;;;6752124;88;20231;-79
2022/08/21 18:20:32;;;;;;;1999.90;999.90;;;24.70;77.20;;;;;;6752863;88;20572;-79
2022/08/21 18:30:38;;;;;;;1999.90;999.90;;;24.30;77.50;;;;;;6753125;88;20191;-81
2022/08/21 18:50:44;;;;;;;1999.90;999.90;;;23.80;79.30;;;;;;6726362;88;20399;-79
2022/08/21 19:00:48;;;;;;;1999.90;999.90;;;23.50;79.90;;;;;;6726324;88;20512;-78
2022/08/21 19:10:54;;;;;;;1999.90;999.90;;;23.20;81.10;;;;;;6721052;88;20190;-80
2022/08/21 19:20:55;;;;;;;1999.90;999.90;;;22.90;82.30;;;;;;6720795;88;20242;-77
2022/08/21 19:31:15;;;;;;;1999.90;999.90;;;22.90;83.20;;;;;;6717280;88;20263;-78
2022/08/21 19:41:18;;;;;;;1999.90;999.90;;;22.70;83.80;;;;;;6719811;88;20211;-79
2022/08/21 19:51:19;;;;;;;1999.90;999.90;;;22.50;84.80;;;;;;6721344;88;20190;-78
2022/08/21 20:01:22;;;;;;;1999.90;999.90;;;22.30;85.60;;;;;;6728458;88;20186;-78
2022/08/21 20:11:33;;;;;;;1999.90;999.90;;;22.20;86.50;;;;;;6723638;88;20207;-78
2022/08/21 20:21:38;;;;;;;1999.90;999.90;;;22.00;87.00;;;;;;6727291;88;20204;-78
2022/08/21 20:31:38;;;;;;;1999.90;999.90;;;21.90;88.00;;;;;;6723152;88;20821;-78
2022/08/21 20:41:39;;;;;;;1999.90;999.90;;;21.80;88.00;;;;;;6722359;88;20208;-79
2022/08/21 20:51:44;;;;;;;1999.90;999.90;;;21.80;88.30;;;;;;6727074;88;20195;-80
2022/08/21 21:01:47;;;;;;;1999.90;999.90;;;21.70;88.70;;;;;;6729117;88;20205;-77
2022/08/21 21:11:57;;;;;;;1999.90;999.90;;;21.60;89.50;;;;;;6721819;88;20310;-77
2022/08/21 21:22:15;;;;;;;1999.90;999.90;;;21.60;89.60;;;;;;6726663;88;20198;-77
2022/08/21 21:32:16;;;;;;;1999.90;999.90;;;21.50;90.30;;;;;;6728574;88;20211;-78
2022/08/21 21:42:30;;;;;;;1999.90;999.90;;;21.40;90.70;;;;;;6723278;88;20197;-77
2022/08/21 21:52:46;;;;;;;1999.90;999.90;;;21.50;90.90;;;;;;6713458;88;20259;-78
2022/08/21 22:03:09;;;;;;;1999.90;999.90;;;21.40;91.30;;;;;;6721827;88;21104;-77
2022/08/21 22:13:31;;;;;;;1999.90;999.90;;;21.20;91.90;;;;;;6707537;88;20202;-78
2022/08/21 22:23:37;;;;;;;1999.90;999.90;;;21.20;92.30;;;;;;6713604;88;20174;-78
2022/08/21 22:33:38;;;;;;;1999.90;999.90;;;21.20;93.00;;;;;;6715083;88;20691;-77
2022/08/21 22:43:57;;;;;;;1999.90;999.90;;;21.00;93.50;;;;;;6717215;88;20276;-78
2022/08/21 22:53:58;;;;;;;1999.90;999.90;;;20.90;94.00;;;;;;6726809;88;20223;-78
2022/08/21 23:04:14;;;;;;;1999.90;999.90;;;20.80;94.30;;;;;;6731265;88;20201;-78
2022/08/21 23:14:15;;;;;;;1999.90;999.90;;;20.70;94.80;;;;;;6727777;88;20182;-78
2022/08/21 23:24:27;;;;;;;1999.90;999.90;;;20.60;95.80;;;;;;6729648;88;20178;-76
2022/08/21 23:34:37;;;;;;;1999.90;999.90;;;20.40;96.50;;;;;;6723539;88;20178;-77
2022/08/21 23:44:53;;;;;;;1999.90;999.90;;;20.30;97.10;;;;;;6728105;88;20277;-78
2022/08/21 23:54:54;;;;;;;1999.90;999.90;;;20.30;98.30;;;;;;6723074;88;20186;-78
